createdAt,value
2023-04-11T00:01:49.819Z,65.41
2023-04-11T00:04:18.002Z,66.56
2023-04-11T00:06:45.209Z,66.21
2023-04-11T00:09:12.526Z,66.29
2023-04-11T00:11:39.598Z,66.81
2023-04-11T00:14:08.892Z,66.46
2023-04-11T00:16:35.975Z,67.26
2023-04-11T00:19:03.518Z,66.36
2023-04-11T00:21:30.451Z,65.99
2023-04-11T00:23:57.333Z,66.04
2023-04-11T00:26:24.358Z,66.87
2023-04-11T00:28:51.291Z,66.23
2023-04-11T00:31:18.194Z,66.81
2023-04-11T00:33:45.283Z,67.03
2023-04-11T00:36:12.302Z,67.58
2023-04-11T00:38:39.309Z,67.62
2023-04-11T00:41:06.637Z,66.59
2023-04-11T00:43:33.636Z,66.83
2023-04-11T00:46:01.146Z,67.03
2023-04-11T00:48:28.649Z,66.56
2023-04-11T00:50:56.041Z,67.01
2023-04-11T00:53:23.968Z,66.85
2023-04-11T00:55:51.572Z,66.44
2023-04-11T00:58:18.920Z,66.54
2023-04-11T01:00:49.769Z,67.50
2023-04-11T01:03:18.912Z,67.31
2023-04-11T01:05:48.105Z,66.64
2023-04-11T01:08:15.714Z,67.54
2023-04-11T01:10:42.923Z,67.08
2023-04-11T01:13:10.668Z,68.04
2023-04-11T01:15:37.741Z,66.72
2023-04-11T01:18:05.791Z,67.65
2023-04-11T01:20:33.506Z,66.69
2023-04-11T01:23:03.104Z,67.94
2023-04-11T01:25:30.406Z,66.86
2023-04-11T01:27:57.480Z,67.51
2023-04-11T01:30:24.716Z,67.37
2023-04-11T01:32:51.877Z,66.76
2023-04-11T01:35:19.263Z,66.80
2023-04-11T01:37:46.533Z,67.97
2023-04-11T01:40:19.468Z,67.26
2023-04-11T01:42:47.637Z,66.77
2023-04-11T01:45:15.271Z,67.97
2023-04-11T01:47:42.351Z,66.71
2023-04-11T01:50:09.711Z,67.47
2023-04-11T01:52:36.653Z,67.96
2023-04-11T01:55:04.235Z,68.00
2023-04-11T01:57:31.314Z,67.35
2023-04-11T01:59:58.394Z,66.89
2023-04-11T02:02:26.216Z,67.51
2023-04-11T02:04:53.125Z,68.06
2023-04-11T02:07:21.043Z,67.18
2023-04-11T02:09:47.927Z,67.69
2023-04-11T02:12:15.168Z,68.12
2023-04-11T02:14:46.220Z,68.15
2023-04-11T02:17:14.364Z,66.69
2023-04-11T02:19:41.802Z,67.24
2023-04-11T02:22:09.363Z,67.91
2023-04-11T02:24:44.058Z,68.37
2023-04-11T02:27:11.341Z,66.94
2023-04-11T02:29:38.583Z,67.88
2023-04-11T02:32:05.755Z,66.99
2023-04-11T02:34:32.768Z,67.69
2023-04-11T02:36:59.724Z,68.26
2023-04-11T02:39:27.063Z,67.39
2023-04-11T02:41:55.876Z,68.00
2023-04-11T02:44:23.004Z,68.20
2023-04-11T02:46:50.921Z,67.18
2023-04-11T02:49:17.918Z,67.28
2023-04-11T02:51:47.658Z,67.30
2023-04-11T02:54:14.477Z,68.45
2023-04-11T02:56:41.784Z,68.41
2023-04-11T02:59:08.900Z,67.63
2023-04-11T03:01:37.777Z,67.24
2023-04-11T03:04:05.690Z,68.25
2023-04-11T03:06:43.924Z,67.55
2023-04-11T03:09:11.806Z,67.67
2023-04-11T03:11:38.785Z,67.86
2023-04-11T03:14:06.028Z,68.18
2023-04-11T03:16:33.153Z,68.38
2023-04-11T03:19:00.558Z,68.79
2023-04-11T03:21:27.885Z,67.94
2023-04-11T03:23:55.104Z,68.03
2023-04-11T03:26:21.982Z,67.31
2023-04-11T03:28:49.453Z,68.00
2023-04-11T03:31:19.224Z,67.96
2023-04-11T03:33:47.242Z,67.38
2023-04-11T03:36:14.724Z,67.96
2023-04-11T03:38:42.075Z,68.75
2023-04-11T03:41:09.098Z,68.75
2023-04-11T03:43:36.225Z,68.70
2023-04-11T03:46:03.985Z,68.12
2023-04-11T03:48:38.206Z,68.24
2023-04-11T03:51:08.382Z,68.24
2023-04-11T03:54:01.747Z,67.46
2023-04-11T03:56:36.022Z,68.90
2023-04-11T03:59:03.434Z,67.69
2023-04-11T04:01:41.144Z,67.74
2023-04-11T04:04:08.685Z,69.10
2023-04-11T04:06:38.995Z,68.70
2023-04-11T04:09:07.176Z,68.59
2023-04-11T04:11:46.380Z,68.64
2023-04-11T04:14:14.322Z,69.03
2023-04-11T04:16:41.461Z,68.22
2023-04-11T04:19:08.978Z,69.16
2023-04-11T04:21:38.122Z,67.97
2023-04-11T04:24:06.313Z,69.13
2023-04-11T04:27:01.145Z,68.79
2023-04-11T04:29:49.124Z,69.01
2023-04-11T04:32:28.940Z,68.60
2023-04-11T04:35:01.594Z,68.60
2023-04-11T04:37:34.372Z,68.19
2023-04-11T04:40:13.234Z,67.99
2023-04-11T04:43:02.380Z,68.58
2023-04-11T04:45:45.674Z,67.71
2023-04-11T04:48:17.948Z,68.72
2023-04-11T04:50:45.782Z,69.25
2023-04-11T04:53:13.353Z,68.99
2023-04-11T04:55:46.601Z,69.32
2023-04-11T04:58:14.673Z,68.59
2023-04-11T05:00:41.817Z,68.66
2023-04-11T05:03:20.990Z,69.35
2023-04-11T05:05:49.812Z,69.66
2023-04-11T05:08:19.482Z,69.40
2023-04-11T05:10:46.718Z,68.92
2023-04-11T05:13:14.677Z,69.76
2023-04-11T05:15:48.320Z,69.32
2023-04-11T05:18:15.787Z,69.36
2023-04-11T05:20:43.411Z,68.92
2023-04-11T05:23:14.408Z,69.22
2023-04-11T05:25:41.768Z,69.45
2023-04-11T05:28:12.692Z,69.74
2023-04-11T05:30:39.716Z,69.38
2023-04-11T05:33:06.781Z,69.93
2023-04-11T05:35:33.945Z,68.67
2023-04-11T05:38:00.856Z,69.68
2023-04-11T05:40:27.940Z,68.90
2023-04-11T05:42:54.767Z,70.07
2023-04-11T05:45:22.479Z,69.73
2023-04-11T05:47:49.576Z,69.57
2023-04-11T05:50:16.581Z,68.77
2023-04-11T05:52:43.652Z,70.11
2023-04-11T05:55:11.226Z,69.35
2023-04-11T05:57:38.206Z,68.90
2023-04-11T06:00:13.577Z,70.14
2023-04-11T06:02:44.266Z,68.66
2023-04-11T06:05:12.241Z,69.77
2023-04-11T06:07:40.363Z,68.66
2023-04-11T06:10:08.315Z,69.46
2023-04-11T06:12:35.889Z,69.38
2023-04-11T06:15:03.964Z,68.83
2023-04-11T06:17:31.217Z,68.60
2023-04-11T06:19:58.280Z,68.76
2023-04-11T06:22:25.225Z,69.51
2023-04-11T06:24:52.199Z,68.83
2023-04-11T06:27:19.122Z,69.77
2023-04-11T06:29:46.475Z,69.57
2023-04-11T06:32:13.369Z,69.48
2023-04-11T06:34:40.360Z,68.95
2023-04-11T06:37:08.252Z,70.22
2023-04-11T06:39:35.776Z,69.19
2023-04-11T06:42:03.121Z,69.83
2023-04-11T06:44:32.331Z,68.77
2023-04-11T06:46:59.544Z,70.23
2023-04-11T06:49:27.299Z,70.03
2023-04-11T06:51:55.885Z,69.54
2023-04-11T06:54:23.073Z,69.21
2023-04-11T06:56:52.745Z,69.84
2023-04-11T06:59:20.608Z,69.80
2023-04-11T07:01:48.827Z,68.48
2023-04-11T07:04:16.453Z,69.96
2023-04-11T07:06:43.577Z,68.51
2023-04-11T07:09:10.619Z,69.87
2023-04-11T07:11:38.662Z,69.13
2023-04-11T07:14:06.020Z,69.83
2023-04-11T07:16:33.337Z,69.17
2023-04-11T07:19:00.215Z,68.51
2023-04-11T07:21:32.101Z,69.71
2023-04-11T07:24:00.654Z,68.59
2023-04-11T07:26:32.370Z,68.72
2023-04-11T07:29:00.141Z,68.88
2023-04-11T07:31:27.573Z,69.26
2023-04-11T07:33:54.904Z,68.57
2023-04-11T07:36:22.511Z,67.97
2023-04-11T07:38:49.466Z,68.33
2023-04-11T07:41:16.484Z,67.87
2023-04-11T07:43:43.675Z,68.77
2023-04-11T07:46:12.346Z,67.96
2023-04-11T07:48:39.864Z,68.49
2023-04-11T07:51:06.863Z,68.49
2023-04-11T07:53:34.157Z,68.49
2023-04-11T07:56:01.513Z,68.79
2023-04-11T07:58:28.665Z,68.62
2023-04-11T08:00:55.894Z,68.43
2023-04-11T08:03:23.812Z,68.21
2023-04-11T08:05:52.311Z,67.77
2023-04-11T08:08:19.342Z,67.75
2023-04-11T08:10:46.276Z,67.73
2023-04-11T08:13:13.610Z,66.82
2023-04-11T08:15:40.554Z,68.19
2023-04-11T08:18:07.481Z,66.83
2023-04-11T08:20:34.949Z,66.92
2023-04-11T08:23:06.275Z,66.68
2023-04-11T08:25:33.427Z,66.70
2023-04-11T08:28:00.628Z,66.67
2023-04-11T08:30:27.727Z,67.21
2023-04-11T08:32:54.749Z,66.13
2023-04-11T08:35:21.661Z,66.84
2023-04-11T08:37:49.566Z,66.63
2023-04-11T08:40:16.839Z,65.67
2023-04-11T08:42:44.577Z,65.63
2023-04-11T08:45:11.838Z,65.65
2023-04-11T08:47:38.804Z,65.45
2023-04-11T08:50:07.000Z,65.56
2023-04-11T08:52:34.471Z,64.78
2023-04-11T08:55:01.774Z,65.02
2023-04-11T08:57:33.383Z,65.01
2023-04-11T09:00:14.434Z,65.00
2023-04-11T09:03:05.812Z,64.84
2023-04-11T09:05:41.035Z,65.42
2023-04-11T09:08:13.493Z,64.73
2023-04-11T09:10:45.073Z,64.56
2023-04-11T09:13:24.290Z,64.44
2023-04-11T09:16:04.791Z,64.11
2023-04-11T09:18:37.204Z,64.09
2023-04-11T09:21:09.973Z,64.61
2023-04-11T09:23:37.689Z,63.60
2023-04-11T09:26:09.600Z,63.42
2023-04-11T09:28:53.462Z,64.37
2023-04-11T09:31:21.945Z,63.93
2023-04-11T09:33:56.390Z,63.86
2023-04-11T09:36:25.443Z,63.54
2023-04-11T09:38:52.771Z,62.82
2023-04-11T09:41:34.176Z,62.57
2023-04-11T09:44:02.024Z,62.38
2023-04-11T09:46:28.883Z,62.85
2023-04-11T09:48:56.674Z,61.88
2023-04-11T09:51:35.881Z,62.18
2023-04-11T09:54:04.954Z,61.98
2023-04-11T09:56:34.272Z,61.46
2023-04-11T09:59:02.949Z,61.28
2023-04-11T10:01:29.983Z,61.49
2023-04-11T10:03:57.716Z,61.48
2023-04-11T10:06:31.937Z,61.42
2023-04-11T10:09:11.477Z,61.23
2023-04-11T10:11:45.449Z,60.66
2023-04-11T10:14:38.448Z,60.51
2023-04-11T10:17:21.218Z,60.60
2023-04-11T10:19:56.569Z,60.50
2023-04-11T10:22:46.735Z,60.59
2023-04-11T10:25:17.529Z,59.95
2023-04-11T10:28:04.265Z,59.57
2023-04-11T10:31:02.045Z,59.59
2023-04-11T10:33:29.258Z,59.18
2023-04-11T10:36:00.031Z,59.36
2023-04-11T10:38:48.663Z,59.21
2023-04-11T10:41:33.968Z,58.96
2023-04-11T10:44:15.275Z,58.56
2023-04-11T10:46:55.860Z,58.97
2023-04-11T10:49:34.616Z,58.41
2023-04-11T10:52:18.357Z,58.24
2023-04-11T10:54:46.829Z,58.15
2023-04-11T10:57:14.593Z,58.41
2023-04-11T10:59:44.248Z,58.01
2023-04-11T11:02:12.120Z,57.94
2023-04-11T11:04:40.204Z,58.03
2023-04-11T11:07:14.143Z,57.82
2023-04-11T11:09:41.301Z,57.61
2023-04-11T11:12:14.915Z,57.43
2023-04-11T11:14:44.130Z,57.44
2023-04-11T11:17:13.109Z,57.41
2023-04-11T11:19:48.058Z,57.25
2023-04-11T11:22:25.505Z,56.95
2023-04-11T11:24:53.051Z,56.93
2023-04-11T11:27:22.636Z,56.86
2023-04-11T11:29:50.637Z,56.59
2023-04-11T11:32:24.197Z,56.30
2023-04-11T11:34:52.941Z,56.46
2023-04-11T11:37:21.165Z,56.31
2023-04-11T11:39:49.208Z,55.84
2023-04-11T11:42:16.596Z,56.11
2023-04-11T11:44:43.469Z,56.26
2023-04-11T11:47:16.824Z,56.05
2023-04-11T11:49:54.399Z,56.15
2023-04-11T11:52:34.662Z,55.93
2023-04-11T11:55:06.846Z,56.01
2023-04-11T11:57:34.551Z,55.55
2023-04-11T12:00:05.950Z,55.29
2023-04-11T12:02:36.155Z,55.40
2023-04-11T12:05:06.692Z,55.61
2023-04-11T12:07:36.786Z,55.19
2023-04-11T12:10:09.539Z,55.23
2023-04-11T12:12:41.976Z,55.56
2023-04-11T12:15:12.920Z,55.06
2023-04-11T12:17:40.403Z,54.90
2023-04-11T12:20:10.773Z,55.30
2023-04-11T12:22:38.521Z,54.82
2023-04-11T12:25:15.630Z,55.25
2023-04-11T12:27:44.190Z,55.42
2023-04-11T12:30:15.217Z,54.84
2023-04-11T12:32:43.391Z,54.83
2023-04-11T12:35:11.038Z,54.83
2023-04-11T12:37:38.436Z,54.93
2023-04-11T12:40:12.767Z,54.42
2023-04-11T12:45:12.124Z,55.18
2023-04-11T12:47:39.542Z,54.81
2023-04-11T12:50:07.463Z,54.66
2023-04-11T12:52:34.737Z,54.53
2023-04-11T12:55:02.117Z,54.67
2023-04-11T12:57:29.722Z,54.75
2023-04-11T12:59:56.874Z,54.60
2023-04-11T13:02:23.932Z,54.82
2023-04-11T13:04:55.031Z,54.39
2023-04-11T13:07:22.283Z,54.05
2023-04-11T13:09:49.862Z,54.79
2023-04-11T13:12:17.112Z,54.57
2023-04-11T13:14:44.109Z,54.57
2023-04-11T13:17:11.417Z,54.98
2023-04-11T13:19:38.433Z,55.21
2023-04-11T13:22:05.534Z,55.03
2023-04-11T13:24:32.944Z,54.70
2023-04-11T13:26:59.854Z,54.77
2023-04-11T13:29:27.082Z,54.60
2023-04-11T13:31:54.145Z,55.21
2023-04-11T13:34:21.210Z,55.07
2023-04-11T13:36:48.698Z,55.12
2023-04-11T13:39:16.090Z,54.90
2023-04-11T13:41:42.965Z,54.51
2023-04-11T13:44:10.057Z,55.32
2023-04-11T13:46:36.986Z,55.25
2023-04-11T13:49:06.168Z,55.14
2023-04-11T13:51:33.350Z,55.10
2023-04-11T13:54:01.149Z,54.92
2023-04-11T13:56:28.069Z,55.21
2023-04-11T13:58:55.330Z,55.17
2023-04-11T14:01:22.586Z,54.86
2023-04-11T14:03:50.255Z,54.99
2023-04-11T14:06:19.334Z,54.83
2023-04-11T14:08:48.559Z,55.00
2023-04-11T14:11:16.442Z,54.65
2023-04-11T14:13:43.443Z,54.93
2023-04-11T14:16:11.500Z,54.51
2023-04-11T14:18:38.519Z,55.00
2023-04-11T14:21:06.192Z,54.77
2023-04-11T14:23:33.687Z,54.94
2023-04-11T14:26:00.615Z,55.31
2023-04-11T14:28:27.665Z,55.04
2023-04-11T14:30:56.276Z,54.94
2023-04-11T14:33:23.455Z,54.90
2023-04-11T14:35:51.008Z,55.16
2023-04-11T14:38:18.227Z,54.85
2023-04-11T14:40:45.162Z,55.07
2023-04-11T14:43:12.326Z,55.03
2023-04-11T14:45:39.369Z,55.11
2023-04-11T14:48:06.884Z,54.88
2023-04-11T14:50:34.008Z,54.86
2023-04-11T14:53:01.257Z,55.13
2023-04-11T14:55:28.204Z,55.12
2023-04-11T14:57:56.052Z,55.09
2023-04-11T15:00:24.543Z,55.06
2023-04-11T15:02:56.318Z,55.09
2023-04-11T15:05:24.494Z,55.12
2023-04-11T15:07:53.097Z,54.93
2023-04-11T15:10:22.884Z,55.45
2023-04-11T15:12:50.348Z,54.89
2023-04-11T15:15:17.458Z,55.48
2023-04-11T15:17:49.358Z,55.18
2023-04-11T15:20:16.973Z,55.40
2023-04-11T15:22:45.896Z,55.15
2023-04-11T15:25:15.484Z,55.16
2023-04-11T15:27:42.830Z,55.49
2023-04-11T15:30:11.353Z,55.22
2023-04-11T15:32:43.678Z,55.15
2023-04-11T15:35:11.156Z,55.45
2023-04-11T15:37:38.128Z,55.06
2023-04-11T15:40:06.234Z,55.62
2023-04-11T15:42:35.448Z,55.58
2023-04-11T15:45:02.927Z,55.29
2023-04-11T15:47:30.431Z,55.49
2023-04-11T15:49:59.065Z,55.02
2023-04-11T15:52:26.450Z,55.42
2023-04-11T15:54:53.786Z,55.50
2023-04-11T15:57:21.038Z,54.96
2023-04-11T15:59:48.468Z,55.66
2023-04-11T16:02:15.691Z,55.25
2023-04-11T16:04:44.748Z,55.53
2023-04-11T16:07:14.070Z,55.56
2023-04-11T16:09:40.978Z,55.83
2023-04-11T16:12:07.872Z,55.60
2023-04-11T16:14:34.807Z,55.19
2023-04-11T16:17:01.663Z,55.58
2023-04-11T16:19:28.906Z,55.26
2023-04-11T16:21:55.875Z,55.09
2023-04-11T16:24:22.733Z,55.08
2023-04-11T16:26:49.677Z,55.03
2023-04-11T16:29:16.611Z,55.10
2023-04-11T16:31:43.647Z,55.31
2023-04-11T16:34:10.627Z,54.93
2023-04-11T16:36:37.804Z,55.38
2023-04-11T16:39:04.795Z,54.66
2023-04-11T16:41:36.294Z,54.93
2023-04-11T16:44:11.333Z,55.57
2023-04-11T16:46:39.481Z,55.38
2023-04-11T16:49:06.710Z,54.44
2023-04-11T16:51:36.444Z,54.63
2023-04-11T16:54:06.909Z,54.79
2023-04-11T16:56:33.852Z,55.16
2023-04-11T16:59:01.481Z,55.16
2023-04-11T17:01:28.522Z,55.28
2023-04-11T17:03:56.039Z,55.17
2023-04-11T17:06:23.818Z,55.24
2023-04-11T17:08:50.707Z,55.51
2023-04-11T17:11:17.582Z,55.21
2023-04-11T17:13:45.781Z,55.33
2023-04-11T17:16:13.787Z,55.23
2023-04-11T17:18:41.058Z,55.60
2023-04-11T17:21:08.133Z,55.49
2023-04-11T17:23:43.176Z,55.50
2023-04-11T17:26:12.050Z,55.39
2023-04-11T17:28:39.886Z,55.74
2023-04-11T17:31:14.710Z,55.61
2023-04-11T17:33:42.379Z,55.64
2023-04-11T17:36:11.349Z,55.79
2023-04-11T17:38:39.731Z,55.68
2023-04-11T17:41:14.578Z,55.77
2023-04-11T17:43:43.426Z,55.84
2023-04-11T17:46:10.628Z,55.81
2023-04-11T17:48:37.913Z,56.32
2023-04-11T17:51:06.902Z,55.89
2023-04-11T17:53:34.203Z,56.00
2023-04-11T17:56:05.898Z,56.12
2023-04-11T17:58:33.547Z,56.54
2023-04-11T18:01:00.568Z,56.19
2023-04-11T18:03:28.345Z,56.04
2023-04-11T18:05:56.460Z,56.18
2023-04-11T18:08:36.180Z,56.52
2023-04-11T18:11:10.117Z,56.31
2023-04-11T18:13:36.955Z,56.43
2023-04-11T18:16:04.344Z,56.13
2023-04-11T18:18:32.334Z,56.73
2023-04-11T18:21:05.059Z,56.49
2023-04-11T18:23:34.470Z,57.02
2023-04-11T18:26:01.653Z,56.43
2023-04-11T18:28:28.956Z,57.19
2023-04-11T18:30:56.320Z,56.70
2023-04-11T18:33:23.297Z,57.23
2023-04-11T18:35:50.205Z,57.10
2023-04-11T18:38:17.721Z,57.33
2023-04-11T18:40:44.592Z,57.25
2023-04-11T18:43:11.909Z,57.16
2023-04-11T18:45:39.417Z,57.28
2023-04-11T18:48:07.295Z,57.75
2023-04-11T18:50:38.827Z,58.00
2023-04-11T18:53:10.515Z,57.91
2023-04-11T18:55:40.643Z,57.96
2023-04-11T18:58:09.722Z,58.02
2023-04-11T19:00:39.192Z,57.93
2023-04-11T19:03:14.876Z,57.28
2023-04-11T19:05:43.979Z,57.53
2023-04-11T19:08:11.444Z,57.95
2023-04-11T19:10:38.442Z,57.85
2023-04-11T19:13:06.254Z,58.16
2023-04-11T19:15:33.234Z,58.62
2023-04-11T19:18:00.774Z,57.92
2023-04-11T19:20:29.455Z,58.87
2023-04-11T19:22:57.046Z,58.15
2023-04-11T19:25:24.508Z,58.14
2023-04-11T19:27:51.673Z,58.16
2023-04-11T19:30:18.737Z,58.73
2023-04-11T19:32:47.672Z,58.70
2023-04-11T19:35:15.224Z,58.85
2023-04-11T19:37:42.872Z,59.36
2023-04-11T19:40:16.736Z,59.54
2023-04-11T19:42:44.895Z,59.01
2023-04-11T19:45:12.319Z,59.47
2023-04-11T19:47:40.813Z,58.71
2023-04-11T19:50:13.318Z,58.81
2023-04-11T19:52:41.979Z,60.12
2023-04-11T19:55:10.737Z,59.50
2023-04-11T19:57:41.249Z,59.57
2023-04-11T20:00:17.563Z,59.65
2023-04-11T20:02:46.595Z,59.49
2023-04-11T20:05:16.052Z,59.59
2023-04-11T20:07:44.149Z,59.72
2023-04-11T20:10:12.296Z,59.95
2023-04-11T20:12:39.613Z,60.16
2023-04-11T20:15:08.060Z,60.97
2023-04-11T20:17:35.701Z,61.79
2023-04-11T20:20:06.617Z,61.03
2023-04-11T20:22:33.876Z,60.58
2023-04-11T20:25:00.981Z,61.46
2023-04-11T20:27:28.268Z,60.40
2023-04-11T20:29:56.857Z,60.45
2023-04-11T20:32:24.483Z,61.70
2023-04-11T20:34:51.445Z,61.27
2023-04-11T20:37:19.595Z,60.70
2023-04-11T20:39:47.103Z,60.85
2023-04-11T20:42:14.079Z,61.30
2023-04-11T20:44:41.753Z,60.33
2023-04-11T20:47:09.183Z,60.90
2023-04-11T20:49:36.317Z,61.73
2023-04-11T20:52:03.880Z,61.04
2023-04-11T20:54:30.851Z,61.42
2023-04-11T20:56:58.176Z,61.87
2023-04-11T20:59:26.691Z,61.13
2023-04-11T21:01:53.822Z,62.34
2023-04-11T21:04:22.111Z,62.07
2023-04-11T21:06:50.098Z,61.02
2023-04-11T21:09:17.669Z,61.55
2023-04-11T21:11:44.686Z,62.49
2023-04-11T21:14:11.639Z,61.60
2023-04-11T21:16:38.673Z,61.48
2023-04-11T21:19:06.013Z,61.85
2023-04-11T21:21:33.519Z,62.09
2023-04-11T21:24:01.429Z,62.08
2023-04-11T21:26:28.311Z,61.13
2023-04-11T21:28:55.248Z,61.48
2023-04-11T21:31:22.346Z,61.61
2023-04-11T21:33:49.255Z,61.96
2023-04-11T21:36:16.236Z,61.70
2023-04-11T21:38:43.086Z,62.17
2023-04-11T21:41:09.951Z,61.89
2023-04-11T21:43:37.073Z,62.96
2023-04-11T21:46:04.114Z,62.34
2023-04-11T21:48:31.189Z,62.65
2023-04-11T21:50:58.154Z,62.18
2023-04-11T21:53:25.082Z,61.61
2023-04-11T21:55:52.067Z,61.98
2023-04-11T21:58:29.201Z,63.03
2023-04-11T22:00:56.980Z,62.83
2023-04-11T22:03:24.351Z,62.95
2023-04-11T22:05:52.471Z,62.51
2023-04-11T22:08:22.823Z,62.41
2023-04-11T22:10:50.818Z,62.11
2023-04-11T22:13:19.517Z,62.21
2023-04-11T22:15:48.838Z,62.65
2023-04-11T22:18:18.077Z,62.42
2023-04-11T22:20:48.685Z,62.01
2023-04-11T22:23:17.439Z,62.97
2023-04-11T22:25:44.622Z,63.20
2023-04-11T22:28:18.322Z,63.50
2023-04-11T22:30:48.434Z,62.14
2023-04-11T22:33:15.600Z,62.34
2023-04-11T22:35:47.751Z,62.67
2023-04-11T22:38:15.906Z,63.57
2023-04-11T22:40:43.302Z,63.17
2023-04-11T22:43:10.794Z,62.60
2023-04-11T22:45:37.900Z,63.32
2023-04-11T22:48:06.163Z,62.16
2023-04-11T22:50:38.043Z,63.08
2023-04-11T22:53:05.549Z,63.54
2023-04-11T22:55:35.670Z,63.67
2023-04-11T22:58:03.454Z,62.47
2023-04-11T23:00:30.598Z,63.51
2023-04-11T23:02:59.757Z,63.48
2023-04-11T23:05:27.074Z,62.13
2023-04-11T23:07:54.247Z,63.76
2023-04-11T23:10:21.387Z,62.74
2023-04-11T23:12:49.417Z,63.77
2023-04-11T23:15:17.492Z,63.45
2023-04-11T23:17:45.006Z,63.44
2023-04-11T23:20:15.495Z,62.34
2023-04-11T23:22:42.541Z,63.15
2023-04-11T23:25:12.732Z,63.59
2023-04-11T23:27:39.965Z,62.54
2023-04-11T23:30:07.774Z,63.49
2023-04-11T23:32:34.971Z,62.53
2023-04-11T23:35:03.172Z,63.88
2023-04-11T23:37:31.739Z,63.23
2023-04-11T23:39:59.382Z,63.01
2023-04-11T23:42:26.360Z,62.97
2023-04-11T23:44:53.430Z,63.29
2023-04-11T23:47:20.461Z,62.90
2023-04-11T23:49:47.369Z,63.96
2023-04-11T23:52:14.284Z,62.53
2023-04-11T23:54:41.749Z,62.61
2023-04-11T23:57:08.936Z,62.91
2023-04-11T23:59:36.293Z,62.53
